Time;durP1;ratioP1;P1;durP2;ratioP2;P2;SDS_P1;SDS_P2;PMS_P1;PMS_P2;Temp;Humidity;BMP_temperature;BMP_pressure;BME280_temperature;BME280_humidity;BME280_pressure;Samples;Min_cycle;Max_cycle;Signal;HPM_P1;HPM_P2
2023/07/29 00:01:41;;;;;;;4.53;1.70;;;;;;;19.90;100.00;99785.22;8288064;28;20100;-63
2023/07/29 00:05:41;;;;;;;1.50;1.40;;;;;;;19.95;100.00;99770.81;8289138;28;20064;-63
2023/07/29 00:09:42;;;;;;;1.42;1.20;;;;;;;20.02;100.00;99760.66;8290117;28;20061;-63
2023/07/29 00:13:42;;;;;;;2.53;1.27;;;;;;;20.08;100.00;99759.78;8290797;28;20136;-63
2023/07/29 00:17:42;;;;;;;2.13;1.05;;;;;;;20.11;100.00;99764.81;8290617;28;20459;-63
2023/07/29 00:21:43;;;;;;;4.32;1.30;;;;;;;20.10;100.00;99763.97;8291276;28;20341;-63
2023/07/29 00:25:43;;;;;;;1.70;1.20;;;;;;;20.11;100.00;99770.31;8295795;28;20060;-63
2023/07/29 00:29:44;;;;;;;1.27;1.15;;;;;;;20.06;100.00;99761.91;8297459;28;20058;-63
2023/07/29 00:33:44;;;;;;;3.28;1.23;;;;;;;19.98;100.00;99764.91;8296686;28;20450;-63
2023/07/29 00:37:45;;;;;;;4.13;1.63;;;;;;;19.97;100.00;99768.72;8296760;28;20487;-63
2023/07/29 00:41:45;;;;;;;1.90;1.17;;;;;;;20.04;100.00;99764.03;8295976;28;20493;-63
2023/07/29 00:45:47;;;;;;;2.30;1.05;;;;;;;20.02;100.00;99749.66;8296805;28;20109;-63
2023/07/29 00:49:49;;;;;;;3.30;1.08;;;;;;;19.99;100.00;99755.59;8296386;28;20041;-63
2023/07/29 00:53:49;;;;;;;1.25;1.10;;;;;;;20.01;100.00;99739.78;8296872;28;20046;-63
2023/07/29 00:57:54;;;;;;;2.65;1.30;;;;;;;20.05;100.00;99749.22;8295330;28;20037;-63
2023/07/29 01:01:54;;;;;;;;;;;;;;;20.16;100.00;99740.34;8291927;23;20043;-85
2023/07/29 01:06:08;;;;;;;2.60;1.00;;;;;;;20.12;100.00;99747.28;8262016;28;19924;-85
2023/07/29 01:10:18;;;;;;;;;;;;;;;20.25;100.00;99739.03;8257361;28;20042;-86
2023/07/29 01:14:31;;;;;;;2.85;1.00;;;;;;;20.15;100.00;99738.63;8291222;23;20008;-64
2023/07/29 01:18:36;;;;;;;0.88;0.82;;;;;;;20.06;100.00;99734.47;8279790;28;20419;-64
2023/07/29 01:22:37;;;;;;;2.35;1.27;;;;;;;20.15;100.00;99727.66;8282626;28;20133;-64
2023/07/29 01:26:38;;;;;;;2.65;0.90;;;;;;;20.11;100.00;99742.88;8278991;28;20054;-63
2023/07/29 01:30:42;;;;;;;5.00;1.30;;;;;;;20.15;100.00;99744.13;8280212;28;20046;-64
2023/07/29 01:35:02;;;;;;;9.68;1.60;;;;;;;20.10;100.00;99738.44;8283845;28;20034;-64
2023/07/29 01:39:03;;;;;;;3.67;1.70;;;;;;;20.15;100.00;99744.13;8280316;28;20116;-63
2023/07/29 01:43:04;;;;;;;1.70;1.33;;;;;;;20.17;100.00;99740.13;8279579;28;20046;-63
2023/07/29 01:47:04;;;;;;;2.60;1.20;;;;;;;20.16;100.00;99729.38;8279032;28;20495;-64
2023/07/29 01:51:06;;;;;;;2.42;1.10;;;;;;;20.14;100.00;99731.47;8279131;28;20037;-64
2023/07/29 01:55:07;;;;;;;2.63;1.27;;;;;;;20.15;100.00;99741.38;8278662;28;20041;-64
2023/07/29 01:59:07;;;;;;;4.82;1.58;;;;;;;20.13;100.00;99729.81;8276155;28;20146;-64
2023/07/29 02:03:08;;;;;;;4.88;1.70;;;;;;;20.14;100.00;99734.22;8278259;28;20463;-64
2023/07/29 02:07:08;;;;;;;3.20;1.33;;;;;;;20.14;100.00;99736.97;8279167;28;20037;-64
2023/07/29 02:11:09;;;;;;;2.80;1.10;;;;;;;20.10;100.00;99738.44;8280354;28;20709;-64
2023/07/29 02:15:09;;;;;;;5.03;1.50;;;;;;;20.12;100.00;99728.06;8278441;28;20041;-64
2023/07/29 02:19:10;;;;;;;2.92;1.10;;;;;;;20.07;100.00;99715.00;8278565;28;20518;-64
2023/07/29 02:23:10;;;;;;;3.17;1.33;;;;;;;20.08;100.00;99721.34;8277560;28;20555;-60
2023/07/29 02:27:11;;;;;;;1.45;1.08;;;;;;;20.04;100.00;99720.97;8279246;28;20044;-61
2023/07/29 02:31:17;;;;;;;1.67;0.77;;;;;;;20.04;100.00;99714.63;8278473;28;20045;-60
2023/07/29 02:35:19;;;;;;;1.88;0.95;;;;;;;20.01;100.00;99732.38;8278023;28;20409;-61
2023/07/29 02:39:20;;;;;;;1.65;1.00;;;;;;;19.98;100.00;99726.50;8276024;28;20517;-60
2023/07/29 02:43:20;;;;;;;0.70;0.50;;;;;;;19.91;100.00;99731.19;8275813;28;20121;-61
2023/07/29 02:47:21;;;;;;;3.05;0.63;;;;;;;19.81;100.00;99730.78;8276985;28;20423;-60
2023/07/29 02:51:21;;;;;;;1.27;0.50;;;;;;;19.79;100.00;99741.16;8276865;28;20403;-61
2023/07/29 02:55:22;;;;;;;0.73;0.50;;;;;;;19.74;100.00;99740.97;8275734;28;20569;-61
2023/07/29 02:59:22;;;;;;;0.70;0.60;;;;;;;19.71;100.00;99735.91;8275304;28;20038;-61
2023/07/29 03:03:23;;;;;;;0.85;0.50;;;;;;;19.68;100.00;99739.09;8277788;28;20048;-60
2023/07/29 03:07:23;;;;;;;1.02;0.70;;;;;;;19.66;100.00;99732.97;8279036;28;20035;-61
2023/07/29 03:11:24;;;;;;;1.25;0.60;;;;;;;19.71;100.00;99724.94;8276192;28;20038;-61
2023/07/29 03:15:26;;;;;;;5.00;1.10;;;;;;;19.66;100.00;99716.50;8276834;28;20546;-62
2023/07/29 03:19:26;;;;;;;2.10;0.70;;;;;;;19.66;100.00;99722.84;8275776;28;20038;-63
2023/07/29 03:23:28;;;;;;;1.20;0.80;;;;;;;19.60;100.00;99728.38;8275420;28;20038;-62
2023/07/29 03:27:29;;;;;;;1.67;0.90;;;;;;;19.59;100.00;99704.75;8274612;28;20407;-62
2023/07/29 03:31:29;;;;;;;4.07;0.90;;;;;;;19.64;100.00;99714.00;8278512;28;20061;-62
2023/07/29 03:35:30;;;;;;;1.30;0.95;;;;;;;19.58;100.00;99717.63;8274381;28;20412;-64
2023/07/29 03:39:30;;;;;;;2.05;0.80;;;;;;;19.57;100.00;99706.88;8275384;28;20120;-65
2023/07/29 03:43:30;;;;;;;4.18;0.90;;;;;;;19.52;100.00;99711.09;8275770;28;20058;-62
2023/07/29 03:47:33;;;;;;;3.20;0.98;;;;;;;19.46;100.00;99719.38;8278288;28;20065;-62
2023/07/29 03:51:34;;;;;;;0.85;0.73;;;;;;;19.37;100.00;99729.72;8273952;28;20038;-62
2023/07/29 03:55:35;;;;;;;3.95;0.88;;;;;;;19.20;100.00;99723.00;8274466;28;20073;-61
2023/07/29 03:59:35;;;;;;;2.05;0.90;;;;;;;19.29;100.00;99737.34;8274870;28;20031;-61
2023/07/29 04:03:36;;;;;;;2.70;1.13;;;;;;;19.38;100.00;99742.38;8276170;28;20550;-62
2023/07/29 04:07:37;;;;;;;4.70;1.20;;;;;;;19.27;100.00;99742.19;8277422;28;20041;-62
2023/07/29 04:11:37;;;;;;;1.92;1.55;;;;;;;19.23;100.00;99738.16;8273686;28;20038;-62
2023/07/29 04:15:38;;;;;;;2.80;1.30;;;;;;;19.22;100.00;99731.00;8279440;28;20042;-62
2023/07/29 04:19:39;;;;;;;3.70;1.70;;;;;;;19.22;100.00;99731.84;8274972;28;20041;-58
2023/07/29 04:23:40;;;;;;;11.63;1.80;;;;;;;19.25;100.00;99736.88;8274487;28;20038;-59
2023/07/29 04:27:40;;;;;;;2.17;1.52;;;;;;;19.19;100.00;99743.22;8273477;28;20049;-59
2023/07/29 04:31:41;;;;;;;3.45;1.70;;;;;;;19.10;100.00;99760.13;8276805;28;20038;-59
2023/07/29 04:35:42;;;;;;;3.05;1.80;;;;;;;19.06;100.00;99767.91;8273909;28;20093;-58
2023/07/29 04:39:42;;;;;;;1.92;1.30;;;;;;;19.03;100.00;99760.13;8274946;28;20042;-59
2023/07/29 04:43:43;;;;;;;2.80;1.42;;;;;;;19.09;100.00;99759.28;8275082;28;20400;-62
2023/07/29 04:47:43;;;;;;;5.25;2.10;;;;;;;19.04;100.00;99755.50;8277754;28;20034;-61
2023/07/29 04:51:43;;;;;;;3.45;1.60;;;;;;;19.03;100.00;99760.13;8272471;28;20113;-61
2023/07/29 04:55:44;;;;;;;7.43;1.67;;;;;;;18.99;100.00;99761.63;8273476;28;20381;-62
2023/07/29 04:59:45;;;;;;;2.90;1.83;;;;;;;19.04;100.00;99759.09;8275358;28;20116;-62
2023/07/29 05:03:45;;;;;;;2.35;1.75;;;;;;;19.07;100.00;99760.56;8274789;28;20042;-62
2023/07/29 05:07:47;;;;;;;2.40;2.20;;;;;;;19.24;100.00;99754.41;8277242;28;20037;-62
2023/07/29 05:11:48;;;;;;;2.75;2.38;;;;;;;19.29;100.00;99749.16;8278544;28;20044;-62
2023/07/29 05:15:50;;;;;;;3.13;2.15;;;;;;;19.29;100.00;99754.66;8282204;28;20030;-61
2023/07/29 05:19:50;;;;;;;3.65;1.83;;;;;;;19.36;100.00;99768.31;8278954;28;20038;-62
2023/07/29 05:23:50;;;;;;;2.05;1.85;;;;;;;19.36;100.00;99766.41;8279098;28;20038;-62
2023/07/29 05:27:51;;;;;;;2.47;1.58;;;;;;;19.32;100.00;99775.28;8279176;28;20112;-62
2023/07/29 05:31:51;;;;;;;4.28;1.70;;;;;;;19.32;100.00;99765.19;8280854;28;20471;-62
2023/07/29 05:35:53;;;;;;;2.10;1.60;;;;;;;19.37;100.00;99781.81;8279559;28;20056;-61
2023/07/29 05:39:54;;;;;;;2.63;1.70;;;;;;;19.41;100.00;99785.81;8277942;28;20491;-62
2023/07/29 05:43:54;;;;;;;5.53;1.65;;;;;;;19.45;100.00;99781.59;8278709;28;20038;-62
2023/07/29 05:47:54;;;;;;;3.75;2.17;;;;;;;19.48;100.00;99790.44;8278603;28;20034;-61
2023/07/29 05:51:55;;;;;;;3.67;2.15;;;;;;;19.51;100.00;99790.84;8280231;28;20089;-61
2023/07/29 05:55:55;;;;;;;7.43;2.53;;;;;;;19.51;100.00;99800.97;8278641;28;20045;-59
2023/07/29 05:59:56;;;;;;;4.28;2.03;;;;;;;19.53;100.00;99805.19;8279443;28;20091;-60
2023/07/29 06:03:56;;;;;;;5.55;2.50;;;;;;;19.56;100.00;99814.88;8279495;28;20405;-60
2023/07/29 06:07:58;;;;;;;6.45;2.45;;;;;;;19.61;100.00;99826.03;8280581;28;20030;-59
2023/07/29 06:11:58;;;;;;;3.72;2.53;;;;;;;19.64;100.00;99828.34;8276430;28;20038;-60
2023/07/29 06:15:58;;;;;;;5.43;2.60;;;;;;;19.71;100.00;99841.00;8275559;28;20042;-60
2023/07/29 06:19:59;;;;;;;3.65;2.80;;;;;;;19.77;100.00;99842.03;8278846;28;20042;-59
2023/07/29 06:24:00;;;;;;;6.30;2.88;;;;;;;19.90;100.00;99847.47;8271522;28;20125;-60
2023/07/29 06:28:01;;;;;;;6.13;2.67;;;;;;;19.90;100.00;99848.31;8275838;28;20035;-60
2023/07/29 06:32:02;;;;;;;3.85;2.83;;;;;;;19.91;100.00;99835.44;8277651;28;20092;-60
2023/07/29 06:36:03;;;;;;;3.70;2.72;;;;;;;19.91;100.00;99838.19;8274865;28;20042;-60
2023/07/29 06:40:04;;;;;;;5.20;2.58;;;;;;;19.94;100.00;99840.50;8274460;28;20037;-60
2023/07/29 06:44:04;;;;;;;8.95;2.90;;;;;;;20.13;100.00;99836.84;8274705;28;20042;-60
2023/07/29 06:48:05;;;;;;;5.90;3.00;;;;;;;20.18;100.00;99826.03;8273840;28;20093;-60
2023/07/29 06:52:05;;;;;;;4.47;3.17;;;;;;;20.49;100.00;99828.84;8272215;28;20034;-60
2023/07/29 06:56:06;;;;;;;4.68;3.00;;;;;;;20.66;100.00;99824.47;8274361;28;20069;-62
2023/07/29 07:00:09;;;;;;;3.40;2.95;;;;;;;20.74;100.00;99821.47;8274577;28;20411;-60
2023/07/29 07:04:09;;;;;;;5.90;2.58;;;;;;;20.71;100.00;99832.91;8273202;28;20443;-59
2023/07/29 07:08:09;;;;;;;4.82;3.05;;;;;;;20.66;100.00;99829.97;8274914;28;20096;-60
2023/07/29 07:12:10;;;;;;;3.63;2.60;;;;;;;20.74;100.00;99846.19;8270824;28;20046;-60
2023/07/29 07:16:10;;;;;;;6.05;2.20;;;;;;;20.69;100.00;99855.09;8275835;28;20500;-60
2023/07/29 07:20:11;;;;;;;2.67;1.65;;;;;;;21.01;100.00;99844.94;8273846;28;20507;-61
2023/07/29 07:24:11;;;;;;;2.47;1.60;;;;;;;21.42;100.00;99842.47;8273254;28;20180;-60
2023/07/29 07:28:12;;;;;;;2.17;1.40;;;;;;;21.37;100.00;99852.47;8271414;28;20514;-60
2023/07/29 07:32:12;;;;;;;2.80;1.55;;;;;;;21.25;100.00;99860.59;8275988;28;20062;-59
2023/07/29 07:36:13;;;;;;;2.25;1.30;;;;;;;21.30;100.00;99858.03;8271962;28;20038;-60
2023/07/29 07:40:13;;;;;;;3.00;1.20;;;;;;;21.34;100.00;99853.75;8274232;28;20041;-60
2023/07/29 07:44:17;;;;;;;1.23;1.08;;;;;;;21.39;100.00;99853.91;8278811;28;20042;-60
2023/07/29 07:48:19;;;;;;;4.43;1.50;;;;;;;21.56;100.00;99849.50;8274564;28;20126;-61
2023/07/29 07:52:20;;;;;;;1.92;1.05;;;;;;;21.66;100.00;99860.00;8272531;28;20038;-60
2023/07/29 07:56:21;;;;;;;4.13;1.35;;;;;;;21.66;100.00;99855.34;8271511;28;20042;-60
2023/07/29 08:00:21;;;;;;;3.50;1.10;;;;;;;21.61;100.00;99866.19;8276489;28;20049;-60
2023/07/29 08:04:21;;;;;;;2.35;1.13;;;;;;;21.64;100.00;99862.97;8271311;28;20065;-59
2023/07/29 08:08:22;;;;;;;3.25;0.90;;;;;;;22.12;97.49;99871.34;8272298;28;20077;-60
2023/07/29 08:12:22;;;;;;;2.85;1.10;;;;;;;22.12;97.66;99874.94;8272198;28;20145;-60
2023/07/29 08:16:23;;;;;;;2.90;1.30;;;;;;;21.96;97.20;99867.28;8276182;28;20038;-60
2023/07/29 08:20:23;;;;;;;5.38;1.30;;;;;;;21.91;94.60;99858.91;8272620;28;20041;-60
2023/07/29 08:24:24;;;;;;;2.60;0.73;;;;;;;21.82;92.96;99870.41;8271862;28;20496;-60
2023/07/29 08:28:24;;;;;;;1.83;0.90;;;;;;;21.68;93.70;99872.44;8271703;28;20137;-62
2023/07/29 08:32:25;;;;;;;1.63;0.80;;;;;;;21.73;96.10;99878.13;8273024;28;20141;-62
2023/07/29 08:36:26;;;;;;;2.17;0.88;;;;;;;21.78;97.09;99871.97;8283566;28;20046;-62
2023/07/29 08:40:29;;;;;;;0.80;0.60;;;;;;;21.87;97.51;99874.19;8267338;28;20042;-62
2023/07/29 08:44:36;;;;;;;2.05;0.90;;;;;;;22.08;98.36;99872.88;8265859;28;20049;-62
2023/07/29 08:48:41;;;;;;;2.97;1.17;;;;;;;22.23;97.30;99876.91;8277347;28;20061;-62
2023/07/29 08:52:44;;;;;;;1.65;0.70;;;;;;;22.15;90.79;99882.75;8275023;28;20113;-62
2023/07/29 08:56:45;;;;;;;1.92;1.00;;;;;;;22.00;90.52;99890.56;8273440;28;20042;-62
2023/07/29 09:00:46;;;;;;;1.27;0.70;;;;;;;22.05;94.29;99881.59;8277426;28;20034;-62
2023/07/29 09:04:47;;;;;;;1.17;0.80;;;;;;;21.79;91.04;99893.75;8274300;28;20058;-64
2023/07/29 09:08:50;;;;;;;1.33;0.80;;;;;;;21.81;91.09;99886.13;8273937;28;20037;-62
2023/07/29 09:12:51;;;;;;;4.00;0.90;;;;;;;21.98;92.16;99887.19;8273131;28;20113;-63
2023/07/29 09:16:51;;;;;;;3.05;1.08;;;;;;;22.10;91.07;99895.50;8273717;28;20043;-62
2023/07/29 09:20:52;;;;;;;2.13;0.85;;;;;;;22.35;91.64;99894.34;8275142;28;20282;-63
2023/07/29 09:24:53;;;;;;;1.95;0.80;;;;;;;22.54;90.53;99890.50;8272865;28;20416;-62
2023/07/29 09:28:56;;;;;;;1.73;0.82;;;;;;;23.16;87.03;99887.25;8274041;28;20146;-62
2023/07/29 09:32:57;;;;;;;1.65;0.98;;;;;;;23.17;87.03;99888.91;8274067;28;20034;-62
2023/07/29 09:36:58;;;;;;;2.28;0.75;;;;;;;23.06;87.26;99892.47;8272565;28;20270;-62
2023/07/29 09:40:58;;;;;;;1.95;0.73;;;;;;;23.13;86.83;99893.25;8274963;28;20488;-63
2023/07/29 09:44:59;;;;;;;1.33;0.70;;;;;;;24.07;83.52;99889.47;8273274;28;20046;-63
2023/07/29 09:48:59;;;;;;;1.73;0.93;;;;;;;23.85;81.53;99896.66;8277044;28;20120;-60
2023/07/29 09:53:02;;;;;;;0.88;0.70;;;;;;;23.40;84.82;99887.28;8273502;28;20045;-60
2023/07/29 09:57:03;;;;;;;1.45;1.00;;;;;;;22.99;84.54;99897.28;8273674;28;20531;-61
2023/07/29 10:01:06;;;;;;;2.15;0.80;;;;;;;22.67;85.83;99901.38;8274012;28;20115;-61
2023/07/29 10:05:08;;;;;;;1.00;0.77;;;;;;;22.71;86.08;99905.34;8274111;28;20129;-61
2023/07/29 10:09:10;;;;;;;0.98;0.70;;;;;;;22.66;82.74;99907.94;8273127;28;20073;-61
2023/07/29 10:13:12;;;;;;;1.38;0.85;;;;;;;22.33;89.28;99913.03;8272643;28;20461;-60
2023/07/29 10:17:15;;;;;;;3.20;0.75;;;;;;;21.54;100.00;99912.19;8272724;28;20053;-60
2023/07/29 10:21:16;;;;;;;1.40;0.98;;;;;;;21.03;100.00;99919.78;8270915;28;20622;-60
2023/07/29 10:25:19;;;;;;;3.53;1.10;;;;;;;20.99;100.00;99927.66;8273057;28;20061;-60
2023/07/29 10:29:23;;;;;;;4.93;1.45;;;;;;;20.92;100.00;99923.22;8268732;28;20061;-61
2023/07/29 10:33:24;;;;;;;1.97;1.20;;;;;;;20.85;100.00;99922.41;8277481;28;20474;-60
2023/07/29 10:37:25;;;;;;;2.15;1.13;;;;;;;21.10;100.00;99906.81;8274342;28;20042;-61
2023/07/29 10:42:01;;;;;;;2.40;1.00;;;;;;;21.36;100.00;99920.38;8276131;28;20053;-61
2023/07/29 10:46:22;;;;;;;1.42;1.02;;;;;;;21.53;100.00;99915.97;8274814;28;20042;-61
2023/07/29 10:50:22;;;;;;;2.38;1.08;;;;;;;21.84;100.00;99910.44;8273800;28;20038;-60
2023/07/29 10:54:23;;;;;;;1.08;0.90;;;;;;;22.19;100.00;99906.00;8269673;28;20518;-60
2023/07/29 10:58:23;;;;;;;1.73;1.10;;;;;;;22.47;100.00;99903.50;8270359;28;20569;-60
2023/07/29 11:02:36;;;;;;;1.30;0.85;;;;;;;22.52;99.02;99911.97;8272429;28;20038;-60
2023/07/29 11:07:07;;;;;;;1.20;0.95;;;;;;;22.17;100.00;99907.31;8275464;28;20034;-62
2023/07/29 11:11:11;;;;;;;1.88;1.08;;;;;;;23.86;98.88;99899.19;8272241;28;20104;-62
2023/07/29 11:15:14;;;;;;;1.10;0.70;;;;;;;27.64;76.68;99883.53;8269911;28;20324;-62
2023/07/29 11:19:19;;;;;;;1.73;0.73;;;;;;;27.84;70.50;99893.94;8270231;28;20030;-62
2023/07/29 11:23:20;;;;;;;1.23;0.70;;;;;;;26.15;76.36;99884.41;8268517;28;20271;-62
2023/07/29 11:27:21;;;;;;;2.35;0.80;;;;;;;26.55;76.67;99890.47;8269219;28;20041;-62
2023/07/29 11:31:21;;;;;;;1.70;0.70;;;;;;;27.66;72.04;99891.59;8270708;28;20045;-62
2023/07/29 11:35:22;;;;;;;1.30;0.68;;;;;;;27.51;68.65;99888.72;8284148;28;20792;-62
2023/07/29 11:39:22;;;;;;;1.20;0.85;;;;;;;27.11;71.04;99888.31;8272426;28;20073;-63
2023/07/29 11:43:23;;;;;;;1.92;0.80;;;;;;;26.68;69.84;99884.53;8268426;28;20133;-62
2023/07/29 11:47:24;;;;;;;1.88;0.70;;;;;;;25.76;74.45;99888.25;8271912;28;20411;-62
2023/07/29 11:51:25;;;;;;;1.10;0.80;;;;;;;25.15;78.30;99877.25;8273089;28;20511;-62
2023/07/29 11:55:26;;;;;;;1.00;0.73;;;;;;;25.10;77.56;99879.09;8269264;28;20053;-62
2023/07/29 11:59:28;;;;;;;0.80;0.60;;;;;;;26.93;72.53;99869.28;8267842;28;20042;-62
2023/07/29 12:03:29;;;;;;;1.00;0.60;;;;;;;29.51;65.77;99863.63;8267934;28;20046;-64
2023/07/29 12:07:30;;;;;;;0.80;0.63;;;;;;;29.36;64.95;99864.47;8268395;28;20045;-63
2023/07/29 12:11:31;;;;;;;0.88;0.73;;;;;;;28.01;66.91;99855.72;8266848;28;20030;-64
2023/07/29 12:15:31;;;;;;;0.95;0.63;;;;;;;26.42;68.26;99849.28;8271590;28;20049;-64
2023/07/29 12:19:34;;;;;;;2.70;0.80;;;;;;;25.64;70.63;99848.75;8271987;28;20065;-64
2023/07/29 12:23:36;;;;;;;2.28;0.90;;;;;;;25.15;73.19;99841.28;8278437;28;20064;-63
2023/07/29 12:27:36;;;;;;;0.85;0.70;;;;;;;24.83;76.37;99840.19;8274648;28;20049;-63
2023/07/29 12:31:37;;;;;;;2.42;1.05;;;;;;;24.79;76.79;99838.97;8276694;28;20042;-63
2023/07/29 12:35:38;;;;;;;3.33;1.00;;;;;;;24.47;77.37;99846.09;8275858;28;20121;-64
2023/07/29 12:39:42;;;;;;;1.88;1.13;;;;;;;25.09;77.93;99841.47;8279356;28;20050;-63
2023/07/29 12:43:42;;;;;;;0.90;0.70;;;;;;;24.66;77.74;99823.56;8273485;28;20154;-64
2023/07/29 12:47:43;;;;;;;1.42;0.85;;;;;;;24.59;76.88;99808.19;8275756;28;20080;-64
2023/07/29 12:51:43;;;;;;;0.50;0.50;;;;;;;24.57;79.20;99824.16;8274509;28;20500;-64
2023/07/29 12:55:44;;;;;;;1.30;0.80;;;;;;;24.50;79.85;99840.06;8273763;28;20588;-64
2023/07/29 12:59:44;;;;;;;0.73;0.60;;;;;;;24.47;79.06;99843.31;8275371;28;20436;-64
2023/07/29 13:03:45;;;;;;;0.95;0.80;;;;;;;24.38;79.50;99850.31;8274642;28;20058;-64
2023/07/29 13:07:46;;;;;;;1.88;0.90;;;;;;;24.15;85.53;99842.13;8277746;28;20054;-64
2023/07/29 13:11:46;;;;;;;2.42;1.05;;;;;;;23.55;92.17;99846.28;8271582;28;20069;-64
2023/07/29 13:15:46;;;;;;;2.97;1.23;;;;;;;23.01;100.00;99856.53;8274343;28;20562;-63
2023/07/29 13:19:47;;;;;;;2.55;1.58;;;;;;;22.66;100.00;99863.84;8271039;28;20136;-64
2023/07/29 13:23:48;;;;;;;2.63;1.25;;;;;;;22.40;100.00;99855.94;8272079;28;20129;-63
2023/07/29 13:27:48;;;;;;;1.75;1.15;;;;;;;22.13;100.00;99862.84;8273813;28;20073;-61
2023/07/29 13:31:49;;;;;;;2.10;1.23;;;;;;;21.90;100.00;99865.47;8272052;28;20042;-62
2023/07/29 13:35:50;;;;;;;7.55;1.45;;;;;;;21.73;100.00;99880.00;8273526;28;20073;-62
2023/07/29 13:39:50;;;;;;;3.30;1.95;;;;;;;21.59;100.00;99876.56;8273749;28;20054;-61
2023/07/29 13:43:50;;;;;;;2.85;1.70;;;;;;;21.45;100.00;99869.53;8273705;28;20129;-61
2023/07/29 13:47:51;;;;;;;3.75;1.50;;;;;;;21.29;100.00;99876.41;8277082;28;20037;-61
2023/07/29 13:51:51;;;;;;;2.28;1.38;;;;;;;21.14;100.00;99872.34;8273863;28;20069;-61
2023/07/29 13:55:52;;;;;;;3.58;1.80;;;;;;;21.08;100.00;99890.56;8274250;28;20082;-60
2023/07/29 13:59:52;;;;;;;4.50;2.20;;;;;;;21.15;100.00;99890.50;8274913;28;20049;-61
2023/07/29 14:03:53;;;;;;;2.17;1.77;;;;;;;21.21;100.00;99884.13;8272449;28;20050;-61
2023/07/29 14:07:53;;;;;;;3.35;2.40;;;;;;;21.20;100.00;99872.28;8273434;28;20046;-60
2023/07/29 14:11:54;;;;;;;3.85;1.77;;;;;;;21.26;100.00;99854.06;8270755;28;20042;-61
2023/07/29 14:15:55;;;;;;;3.08;1.90;;;;;;;21.45;100.00;99863.16;8275185;28;20073;-61
2023/07/29 14:19:55;;;;;;;3.97;2.30;;;;;;;21.46;100.00;99860.19;8278709;28;20419;-62
2023/07/29 14:23:56;;;;;;;2.22;1.77;;;;;;;21.54;100.00;99857.16;8283220;28;20045;-61
2023/07/29 14:27:56;;;;;;;2.85;2.10;;;;;;;21.65;100.00;99863.81;8283308;28;20117;-61
2023/07/29 14:31:57;;;;;;;3.05;2.33;;;;;;;21.60;100.00;99867.25;8283980;28;20053;-61
2023/07/29 14:36:01;;;;;;;2.70;2.05;;;;;;;21.72;100.00;99878.34;8285200;28;20136;-61
2023/07/29 14:40:02;;;;;;;2.22;1.75;;;;;;;21.62;100.00;99880.78;8284567;28;20080;-61
2023/07/29 14:44:03;;;;;;;2.50;1.52;;;;;;;21.59;100.00;99887.56;8281878;28;20463;-62
2023/07/29 14:48:04;;;;;;;1.30;1.20;;;;;;;21.55;100.00;99883.59;8297721;28;20033;-61
2023/07/29 14:52:06;;;;;;;1.77;1.55;;;;;;;21.74;100.00;99885.31;8280205;28;20049;-61
2023/07/29 14:56:06;;;;;;;3.38;1.75;;;;;;;21.75;100.00;99869.66;8274685;28;20038;-61
2023/07/29 15:00:08;;;;;;;1.52;1.23;;;;;;;22.00;100.00;99857.53;8271792;28;20048;-62
2023/07/29 15:04:08;;;;;;;2.30;1.38;;;;;;;21.91;100.00;99858.91;8285708;28;21605;-61
2023/07/29 15:08:09;;;;;;;2.28;1.42;;;;;;;22.10;100.00;99863.31;8273423;28;20050;-61
2023/07/29 15:12:10;;;;;;;4.45;1.50;;;;;;;21.97;100.00;99857.97;8269948;28;20049;-61
2023/07/29 15:16:10;;;;;;;1.83;1.55;;;;;;;21.89;100.00;99849.19;8271322;28;20069;-61
2023/07/29 15:20:11;;;;;;;1.55;1.33;;;;;;;22.05;100.00;99834.81;8268739;28;20116;-61
2023/07/29 15:24:12;;;;;;;4.75;1.40;;;;;;;22.24;100.00;99853.81;8270606;28;20073;-61
2023/07/29 15:28:12;;;;;;;2.95;1.50;;;;;;;22.51;100.00;99857.91;8270811;28;20037;-61
2023/07/29 15:32:13;;;;;;;3.28;1.67;;;;;;;22.76;100.00;99863.28;8286442;28;20038;-61
2023/07/29 15:36:13;;;;;;;2.53;1.55;;;;;;;22.96;100.00;99856.38;8268266;28;20034;-61
2023/07/29 15:40:14;;;;;;;2.97;1.65;;;;;;;22.91;100.00;99864.50;8274298;28;20033;-61
2023/07/29 15:44:14;;;;;;;2.08;1.88;;;;;;;22.89;100.00;99866.69;8280010;28;20129;-62
2023/07/29 15:48:15;;;;;;;3.05;1.55;;;;;;;22.91;100.00;99867.25;8272029;28;20042;-63
2023/07/29 15:52:15;;;;;;;2.30;1.60;;;;;;;22.74;100.00;99863.50;8269344;28;20030;-64
2023/07/29 15:56:16;;;;;;;2.53;1.30;;;;;;;22.62;100.00;99868.16;8269644;28;20424;-63
2023/07/29 16:00:16;;;;;;;5.68;1.90;;;;;;;22.64;100.00;99866.00;8271888;28;20033;-62
2023/07/29 16:04:17;;;;;;;2.35;1.77;;;;;;;22.50;100.00;99870.00;8269811;28;20038;-63
2023/07/29 16:08:18;;;;;;;3.33;1.83;;;;;;;22.63;100.00;99858.78;8272106;28;20116;-63
2023/07/29 16:12:19;;;;;;;3.78;1.83;;;;;;;22.78;100.00;99848.19;8268577;28;20058;-62
2023/07/29 16:16:19;;;;;;;1.90;1.70;;;;;;;23.06;100.00;99845.59;8270933;28;20065;-63
2023/07/29 16:20:20;;;;;;;2.10;1.90;;;;;;;23.01;100.00;99851.00;8269163;28;20033;-60
2023/07/29 16:24:20;;;;;;;2.22;1.52;;;;;;;23.03;100.00;99843.31;8276862;28;20597;-62
2023/07/29 16:28:21;;;;;;;1.83;1.50;;;;;;;23.08;100.00;99840.69;8281390;28;20045;-63
2023/07/29 16:32:21;;;;;;;6.50;1.63;;;;;;;23.09;100.00;99831.34;8272004;28;20804;-62
2023/07/29 16:36:22;;;;;;;2.10;1.40;;;;;;;23.02;100.00;99824.25;8264414;28;20782;-63
2023/07/29 16:40:22;;;;;;;3.08;1.70;;;;;;;22.99;100.00;99819.22;8269327;28;20049;-61
2023/07/29 16:44:23;;;;;;;1.80;1.58;;;;;;;22.78;100.00;99815.09;8267354;28;20498;-62
2023/07/29 16:48:23;;;;;;;4.55;1.70;;;;;;;22.65;100.00;99823.59;8273560;28;20042;-62
2023/07/29 16:52:24;;;;;;;2.28;1.30;;;;;;;22.76;100.00;99821.94;8265978;28;20129;-63
2023/07/29 16:56:24;;;;;;;2.33;1.58;;;;;;;22.78;100.00;99828.88;8269152;28;20034;-60
2023/07/29 17:00:25;;;;;;;2.83;2.00;;;;;;;22.85;100.00;99828.78;8271571;28;20034;-60
2023/07/29 17:04:25;;;;;;;3.40;2.60;;;;;;;22.93;100.00;99834.78;8267481;28;20483;-61
2023/07/29 17:08:25;;;;;;;2.70;2.13;;;;;;;22.96;100.00;99837.06;8276143;28;20034;-60
2023/07/29 17:12:26;;;;;;;3.03;1.60;;;;;;;22.81;100.00;99831.16;8273408;28;20092;-60
2023/07/29 17:16:26;;;;;;;6.35;1.40;;;;;;;22.69;100.00;99830.28;8290297;28;20068;-61
2023/07/29 17:20:27;;;;;;;3.63;1.38;;;;;;;22.53;100.00;99828.22;8274074;28;20042;-61
2023/07/29 17:24:27;;;;;;;3.58;1.40;;;;;;;22.46;100.00;99824.69;8272593;28;20038;-60
2023/07/29 17:28:28;;;;;;;4.00;1.30;;;;;;;22.48;100.00;99821.72;8271507;28;20041;-60
2023/07/29 17:32:28;;;;;;;3.50;1.50;;;;;;;22.41;100.00;99816.28;8275203;28;20500;-61
2023/07/29 17:36:29;;;;;;;1.50;1.20;;;;;;;22.35;100.00;99822.72;8274563;28;20044;-60
2023/07/29 17:40:29;;;;;;;2.65;1.70;;;;;;;22.23;100.00;99834.78;8277239;28;20029;-60
2023/07/29 17:44:30;;;;;;;1.83;1.08;;;;;;;22.22;100.00;99844.94;8271414;28;20594;-60
2023/07/29 17:48:30;;;;;;;2.00;1.20;;;;;;;22.12;100.00;99865.84;8276590;28;20530;-60
2023/07/29 17:52:31;;;;;;;1.67;1.08;;;;;;;22.27;100.00;99867.13;8273352;28;20133;-60
2023/07/29 17:56:31;;;;;;;2.95;2.65;;;;;;;22.29;100.00;99872.41;8272916;28;20034;-60
2023/07/29 18:00:33;;;;;;;3.83;1.45;;;;;;;22.22;100.00;99879.91;8275789;28;20038;-61
2023/07/29 18:04:33;;;;;;;5.10;1.80;;;;;;;22.08;100.00;99881.97;8271148;28;20141;-61
2023/07/29 18:08:34;;;;;;;2.35;1.58;;;;;;;22.01;100.00;99881.22;8275542;28;20060;-62
2023/07/29 18:12:38;;;;;;;4.15;1.55;;;;;;;22.03;100.00;99879.09;8273117;28;20056;-62
2023/07/29 18:16:40;;;;;;;1.80;1.35;;;;;;;21.70;100.00;99884.06;8273305;28;22688;-60
2023/07/29 18:20:41;;;;;;;2.30;1.10;;;;;;;21.50;100.00;99880.66;8272487;28;20148;-60
2023/07/29 18:24:41;;;;;;;1.48;1.35;;;;;;;21.39;100.00;99867.66;8272879;28;20097;-60
2023/07/29 18:28:42;;;;;;;3.72;2.00;;;;;;;21.41;100.00;99868.28;8272383;28;20042;-61
2023/07/29 18:32:42;;;;;;;2.50;1.98;;;;;;;21.37;100.00;99861.53;8273982;28;20073;-60
2023/07/29 18:36:43;;;;;;;3.10;1.67;;;;;;;21.31;100.00;99862.44;8273549;28;20042;-60
2023/07/29 18:40:44;;;;;;;4.07;1.83;;;;;;;21.23;100.00;99860.81;8275562;28;20172;-61
2023/07/29 18:44:44;;;;;;;3.75;1.73;;;;;;;21.18;100.00;99868.06;8274475;28;20046;-61